createdAt,value
2023-02-08T00:01:19.702Z,30.24
2023-02-08T00:02:19.735Z,30.24
2023-02-08T00:03:19.683Z,30.24
2023-02-08T00:04:19.666Z,30.24
2023-02-08T00:05:19.658Z,30.19
2023-02-08T00:55:32.370Z,31.46
2023-02-08T00:56:33.335Z,30.65
2023-02-08T00:57:33.337Z,30.51
2023-02-08T00:58:33.313Z,30.45
2023-02-08T00:59:33.306Z,30.40
2023-02-08T01:00:33.393Z,30.37
2023-02-08T01:01:33.394Z,30.31
2023-02-08T01:02:33.290Z,30.30
2023-02-08T01:03:33.267Z,30.29
2023-02-08T01:04:33.263Z,30.29
2023-02-08T01:05:33.257Z,30.28
2023-02-08T01:06:33.246Z,30.26
2023-02-08T01:07:33.248Z,30.27
2023-02-08T01:08:33.225Z,30.29
2023-02-08T01:09:33.216Z,30.27
2023-02-08T01:10:33.209Z,30.25
2023-02-08T01:11:33.223Z,30.27
2023-02-08T01:12:33.195Z,30.26
2023-02-08T01:13:33.181Z,30.23
2023-02-08T01:14:33.173Z,30.26
2023-02-08T01:15:33.168Z,30.26
2023-02-08T01:16:33.210Z,30.27
2023-02-08T01:17:33.146Z,30.24
2023-02-08T01:18:33.140Z,30.27
2023-02-08T01:19:33.129Z,30.25
2023-02-08T01:20:33.126Z,30.26
2023-02-08T01:21:33.113Z,30.28
2023-02-08T01:22:33.101Z,30.27
2023-02-08T01:23:33.093Z,30.25
2023-02-08T01:24:33.089Z,30.27
2023-02-08T01:25:33.080Z,30.24
2023-02-08T01:26:33.070Z,30.26
2023-02-08T01:27:33.084Z,30.27
2023-02-08T01:28:33.050Z,30.27
2023-02-08T01:29:33.041Z,30.29
2023-02-08T01:30:33.055Z,30.27
2023-02-08T01:31:33.063Z,30.29
2023-02-08T01:32:33.021Z,30.30
2023-02-08T01:33:33.014Z,30.28
2023-02-08T01:34:33.003Z,30.26
2023-02-08T01:35:32.992Z,30.25
2023-02-08T01:36:32.981Z,30.29
2023-02-08T01:37:32.975Z,30.27
2023-02-08T01:38:32.967Z,30.28
2023-02-08T01:39:32.953Z,30.30
2023-02-08T01:40:32.945Z,30.30
2023-02-08T01:41:32.937Z,30.30
2023-02-08T01:42:32.936Z,30.29
2023-02-08T01:43:32.945Z,30.30
2023-02-08T01:44:32.910Z,30.29
2023-02-08T01:45:32.917Z,30.30
2023-02-08T01:46:32.901Z,30.29
2023-02-08T01:47:32.885Z,30.28
2023-02-08T01:48:32.887Z,30.28
2023-02-08T01:49:32.866Z,30.30
2023-02-08T01:50:32.864Z,30.29
2023-02-08T01:51:32.853Z,30.29
2023-02-08T01:52:32.838Z,30.29
2023-02-08T01:53:32.831Z,30.29
2023-02-08T01:54:32.822Z,30.28
2023-02-08T01:55:32.815Z,30.30
2023-02-08T01:56:32.803Z,30.29
2023-02-08T01:57:32.802Z,30.30
2023-02-08T01:58:32.795Z,30.31
2023-02-08T01:59:32.801Z,30.31
2023-02-08T02:00:32.770Z,30.31
2023-02-08T02:01:32.762Z,30.33
2023-02-08T02:02:32.750Z,30.33
2023-02-08T02:03:32.746Z,30.32
2023-02-08T02:04:32.741Z,30.32
2023-02-08T02:05:32.724Z,30.30
2023-02-08T02:06:32.716Z,30.31
2023-02-08T02:07:32.705Z,30.32
2023-02-08T02:08:32.707Z,30.34
2023-02-08T02:09:32.691Z,30.31
2023-02-08T02:10:32.683Z,30.33
2023-02-08T02:11:32.676Z,30.33
2023-02-08T02:12:32.665Z,30.33
2023-02-08T02:13:32.664Z,30.31
2023-02-08T02:14:32.655Z,30.31
2023-02-08T02:15:32.704Z,30.33
2023-02-08T02:16:32.707Z,30.32
2023-02-08T02:17:32.623Z,30.33
2023-02-08T02:18:32.643Z,30.31
2023-02-08T02:19:32.611Z,30.30
2023-02-08T02:20:32.601Z,30.31
2023-02-08T02:21:32.590Z,30.31
2023-02-08T02:22:32.626Z,30.29
2023-02-08T02:23:32.567Z,30.32
2023-02-08T02:24:32.569Z,30.30
2023-02-08T02:25:32.555Z,30.33
2023-02-08T02:26:32.539Z,30.31
2023-02-08T02:27:32.533Z,30.32
2023-02-08T02:28:32.532Z,30.30
2023-02-08T02:29:32.521Z,30.29
2023-02-08T02:30:32.523Z,30.32
2023-02-08T02:31:32.585Z,30.30
2023-02-08T02:32:32.489Z,30.31
2023-02-08T02:33:32.480Z,30.29
2023-02-08T02:34:32.475Z,30.26
2023-02-08T02:35:32.463Z,30.28
2023-02-08T02:36:32.459Z,30.29
2023-02-08T02:37:32.449Z,30.30
2023-02-08T02:38:32.441Z,30.30
2023-02-08T02:39:32.427Z,30.30
2023-02-08T02:40:32.422Z,30.30
2023-02-08T02:41:32.411Z,30.30
2023-02-08T02:42:32.401Z,30.30
2023-02-08T02:43:32.391Z,30.28
2023-02-08T02:44:32.386Z,30.26
2023-02-08T02:45:32.429Z,30.26
2023-02-08T02:46:32.366Z,30.28
2023-02-08T02:47:32.383Z,30.27
2023-02-08T02:48:32.356Z,30.28
2023-02-08T02:49:32.344Z,30.28
2023-02-08T02:50:32.340Z,30.28
2023-02-08T02:51:32.325Z,30.29
2023-02-08T02:52:32.321Z,30.28
2023-02-08T02:53:32.322Z,30.28
2023-02-08T02:54:32.307Z,30.29
2023-02-08T02:55:32.293Z,30.31
2023-02-08T02:56:32.287Z,30.30
2023-02-08T02:57:32.273Z,30.30
2023-02-08T02:58:32.272Z,30.28
2023-02-08T02:59:32.258Z,30.30
2023-02-08T03:00:32.250Z,30.28
2023-02-08T03:01:32.355Z,30.27
2023-02-08T03:02:32.230Z,30.29
2023-02-08T03:03:32.248Z,30.28
2023-02-08T03:04:32.257Z,30.28
2023-02-08T03:05:32.205Z,30.28
2023-02-08T03:06:32.194Z,30.27
2023-02-08T03:07:32.189Z,30.27
2023-02-08T03:08:32.180Z,30.26
2023-02-08T03:09:32.170Z,30.26
2023-02-08T03:10:32.162Z,30.27
2023-02-08T03:11:32.154Z,30.27
2023-02-08T03:12:32.154Z,30.24
2023-02-08T03:13:32.137Z,30.25
2023-02-08T03:14:32.131Z,30.25
2023-02-08T03:15:32.119Z,30.24
2023-02-08T03:16:32.128Z,30.25
2023-02-08T03:17:32.108Z,30.25
2023-02-08T03:18:32.093Z,30.22
2023-02-08T03:19:32.111Z,30.23
2023-02-08T03:20:32.073Z,30.22
2023-02-08T03:21:32.067Z,30.21
2023-02-08T03:22:32.061Z,30.22
2023-02-08T03:23:32.048Z,30.24
2023-02-08T03:24:32.040Z,30.23
2023-02-08T03:25:32.034Z,30.23
2023-02-08T03:26:32.024Z,30.24
2023-02-08T03:27:32.014Z,30.23
2023-02-08T03:28:32.005Z,30.24
2023-02-08T03:29:32.001Z,30.25
2023-02-08T03:30:31.989Z,30.22
2023-02-08T03:31:32.124Z,30.22
2023-02-08T03:32:31.968Z,30.22
2023-02-08T03:33:31.962Z,30.22
2023-02-08T03:34:31.952Z,30.22
2023-02-08T03:35:31.971Z,30.25
2023-02-08T03:36:31.938Z,30.23
2023-02-08T03:37:31.933Z,30.22
2023-02-08T03:38:31.917Z,30.24
2023-02-08T03:39:31.913Z,30.26
2023-02-08T03:40:31.935Z,30.23
2023-02-08T03:41:31.931Z,30.23
2023-02-08T03:42:31.885Z,30.23
2023-02-08T03:43:31.875Z,30.21
2023-02-08T03:44:31.865Z,30.21
2023-02-08T03:45:31.874Z,30.22
2023-02-08T03:46:31.851Z,30.22
2023-02-08T03:47:31.839Z,30.21
2023-02-08T03:48:31.830Z,30.21
2023-02-08T03:49:31.821Z,30.21
2023-02-08T03:50:31.818Z,30.19
2023-02-08T03:51:31.828Z,30.20
2023-02-08T03:52:31.796Z,30.22
2023-02-08T03:53:31.789Z,30.19
2023-02-08T03:54:31.777Z,30.19
2023-02-08T03:55:31.777Z,30.19
2023-02-08T03:56:31.767Z,30.18
2023-02-08T03:57:31.762Z,30.17
2023-02-08T03:58:31.739Z,30.18
2023-02-08T03:59:31.733Z,30.17
2023-02-08T04:00:31.723Z,30.19
2023-02-08T04:01:31.717Z,30.17
2023-02-08T04:02:31.726Z,30.19
2023-02-08T04:03:31.697Z,30.19
2023-02-08T04:04:31.686Z,30.20
2023-02-08T04:05:31.677Z,30.18
2023-02-08T04:06:31.666Z,30.19
2023-02-08T04:07:31.688Z,30.16
2023-02-08T04:08:31.649Z,30.17
2023-02-08T04:09:31.649Z,30.15
2023-02-08T04:10:31.659Z,30.20
2023-02-08T04:11:31.627Z,30.17
2023-02-08T04:12:31.614Z,30.17
2023-02-08T04:13:31.615Z,30.19
2023-02-08T04:14:31.598Z,30.16
2023-02-08T04:15:31.653Z,30.17
2023-02-08T04:16:31.587Z,30.19
2023-02-08T04:17:31.571Z,30.17
2023-02-08T04:18:31.568Z,30.19
2023-02-08T04:19:31.554Z,30.19
2023-02-08T04:20:31.545Z,30.17
2023-02-08T04:21:31.539Z,30.18
2023-02-08T04:22:31.530Z,30.15
2023-02-08T04:23:31.546Z,30.18
2023-02-08T04:24:31.511Z,30.15
2023-02-08T04:25:31.509Z,30.15
2023-02-08T04:26:31.498Z,30.13
2023-02-08T04:27:31.493Z,30.12
2023-02-08T04:28:31.474Z,30.10
2023-02-08T04:29:31.471Z,30.07
2023-02-08T04:30:31.495Z,30.05
2023-02-08T04:31:31.547Z,30.01
2023-02-08T04:32:31.447Z,30.00
2023-02-08T04:33:31.440Z,29.98
2023-02-08T04:34:31.429Z,29.96
2023-02-08T04:35:31.415Z,29.94
2023-02-08T04:36:31.409Z,29.89
2023-02-08T04:37:31.401Z,29.90
2023-02-08T04:38:31.398Z,29.89
2023-02-08T04:39:31.404Z,29.88
2023-02-08T04:40:31.371Z,29.87
2023-02-08T04:41:31.367Z,29.90
2023-02-08T04:42:31.356Z,29.88
2023-02-08T04:43:31.349Z,29.86
2023-02-08T04:44:31.340Z,29.86
2023-02-08T04:45:31.338Z,29.87
2023-02-08T04:46:31.358Z,29.87
2023-02-08T04:47:31.312Z,29.87
2023-02-08T04:48:31.307Z,29.85
2023-02-08T04:49:31.301Z,29.81
2023-02-08T04:50:31.303Z,29.80
2023-02-08T04:51:31.281Z,29.80
2023-02-08T04:52:31.298Z,29.77
2023-02-08T04:53:31.266Z,29.77
2023-02-08T04:54:31.266Z,29.77
2023-02-08T04:55:31.269Z,29.76
2023-02-08T04:56:31.242Z,29.76
2023-02-08T04:57:31.226Z,29.76
2023-02-08T04:58:31.224Z,29.78
2023-02-08T04:59:31.209Z,29.77
2023-02-08T05:00:31.212Z,29.75
2023-02-08T05:01:31.233Z,29.75
2023-02-08T05:02:31.190Z,29.76
2023-02-08T05:03:31.172Z,29.73
2023-02-08T05:04:31.165Z,29.75
2023-02-08T05:05:31.157Z,29.74
2023-02-08T05:06:31.158Z,29.72
2023-02-08T05:07:31.138Z,29.72
2023-02-08T05:08:31.130Z,29.72
2023-02-08T05:09:31.125Z,29.70
2023-02-08T05:10:31.109Z,29.69
2023-02-08T05:11:31.126Z,29.67
2023-02-08T05:12:31.099Z,29.67
2023-02-08T05:13:31.096Z,29.66
2023-02-08T05:14:31.079Z,29.65
2023-02-08T05:15:31.066Z,29.66
2023-02-08T05:16:31.063Z,29.67
2023-02-08T05:17:31.045Z,29.66
2023-02-08T05:18:31.038Z,29.66
2023-02-08T05:19:31.029Z,29.64
2023-02-08T05:20:31.077Z,29.63
2023-02-08T05:21:31.016Z,29.63
2023-02-08T05:22:31.004Z,29.63
2023-02-08T05:23:30.994Z,29.63
2023-02-08T05:24:30.985Z,29.66
2023-02-08T05:25:30.977Z,29.64
2023-02-08T05:26:30.969Z,29.66
2023-02-08T05:27:30.986Z,29.64
2023-02-08T05:28:30.954Z,29.61
2023-02-08T05:29:30.943Z,29.61
2023-02-08T05:30:30.941Z,29.61
2023-02-08T05:31:31.039Z,29.62
2023-02-08T05:32:30.916Z,29.60
2023-02-08T05:33:30.911Z,29.58
2023-02-08T05:34:30.901Z,29.55
2023-02-08T05:35:30.891Z,29.55
2023-02-08T05:36:30.879Z,29.55
2023-02-08T05:37:30.873Z,29.55
2023-02-08T05:38:30.869Z,29.52
2023-02-08T05:39:30.852Z,29.52
2023-02-08T05:40:30.841Z,29.54
2023-02-08T05:41:30.838Z,29.55
2023-02-08T05:42:30.865Z,29.53
2023-02-08T05:43:30.848Z,29.54
2023-02-08T05:44:30.815Z,29.55
2023-02-08T05:45:30.801Z,29.54
2023-02-08T05:46:30.862Z,29.55
2023-02-08T05:47:30.797Z,29.56
2023-02-08T05:48:30.775Z,29.56
2023-02-08T05:49:30.764Z,29.54
2023-02-08T05:50:30.755Z,29.55
2023-02-08T05:51:30.753Z,29.54
2023-02-08T05:52:30.734Z,29.52
2023-02-08T05:53:30.728Z,29.56
2023-02-08T05:54:30.717Z,29.54
2023-02-08T05:55:30.709Z,29.53
2023-02-08T05:56:30.708Z,29.54
2023-02-08T05:57:31.931Z,29.56
2023-02-08T05:58:30.687Z,29.56
2023-02-08T05:59:30.699Z,29.51
2023-02-08T06:00:30.664Z,29.51
2023-02-08T06:01:30.660Z,29.52
2023-02-08T06:02:30.652Z,29.53
2023-02-08T06:03:30.640Z,29.51
2023-02-08T06:04:30.634Z,29.50
2023-02-08T06:05:30.624Z,29.50
2023-02-08T06:06:30.616Z,29.51
2023-02-08T06:07:30.603Z,29.52
2023-02-08T06:08:30.631Z,29.48
2023-02-08T06:09:30.591Z,29.10
2023-02-08T06:10:30.576Z,28.62
2023-02-08T06:11:30.568Z,28.17
2023-02-08T06:12:30.576Z,28.40
2023-02-08T06:13:30.553Z,28.75
2023-02-08T06:14:30.547Z,28.89
2023-02-08T06:15:30.563Z,28.90
2023-02-08T06:16:30.578Z,28.88
2023-02-08T06:17:30.982Z,29.04
2023-02-08T06:18:30.515Z,29.17
2023-02-08T06:19:30.526Z,29.13
2023-02-08T06:20:30.495Z,29.45
2023-02-08T06:21:30.493Z,29.46
2023-02-08T06:22:30.489Z,29.49
2023-02-08T06:23:30.475Z,29.66
2023-02-08T06:24:30.456Z,29.68
2023-02-08T06:25:30.447Z,29.69
2023-02-08T06:26:30.438Z,29.78
2023-02-08T06:27:30.427Z,29.73
2023-02-08T06:28:30.503Z,29.91
2023-02-08T06:29:30.510Z,29.93
2023-02-08T06:30:30.406Z,29.98
2023-02-08T06:31:30.459Z,30.08
2023-02-08T06:32:30.532Z,30.02
2023-02-08T06:33:30.379Z,30.13
2023-02-08T06:34:30.372Z,30.17
2023-02-08T06:35:30.357Z,30.13
2023-02-08T06:36:30.360Z,30.27
2023-02-08T06:37:30.347Z,30.18
2023-02-08T06:38:30.357Z,30.18
2023-02-08T06:39:30.351Z,30.31
2023-02-08T06:40:30.326Z,30.27
2023-02-08T06:41:30.501Z,30.27
2023-02-08T06:42:30.303Z,30.37
2023-02-08T06:43:30.292Z,30.30
2023-02-08T06:44:30.292Z,30.66
2023-02-08T06:45:30.329Z,30.59
2023-02-08T06:46:30.508Z,30.43
2023-02-08T06:47:30.283Z,30.55
2023-02-08T06:48:30.254Z,30.60
2023-02-08T06:49:30.240Z,30.60
2023-02-08T06:50:30.512Z,30.75
2023-02-08T06:51:30.253Z,30.60
2023-02-08T06:52:30.509Z,30.71
2023-02-08T06:53:30.240Z,30.83
2023-02-08T06:54:30.201Z,30.87
2023-02-08T06:55:30.191Z,30.79
2023-02-08T06:56:30.178Z,30.88
2023-02-08T06:57:30.503Z,30.59
2023-02-08T06:58:30.162Z,30.16
2023-02-08T06:59:30.149Z,27.58
2023-02-08T07:00:30.148Z,28.50
2023-02-08T07:01:30.224Z,29.73
2023-02-08T07:02:30.550Z,30.20
2023-02-08T07:04:30.530Z,30.13
2023-02-08T07:05:30.102Z,30.11
2023-02-08T07:06:30.091Z,30.09
2023-02-08T07:07:30.104Z,30.18
2023-02-08T07:08:30.508Z,30.34
2023-02-08T07:09:30.536Z,30.53
2023-02-08T07:10:30.117Z,30.59
2023-02-08T07:12:30.034Z,30.95
2023-02-08T07:13:30.070Z,31.04
2023-02-08T07:14:30.529Z,31.18
2023-02-08T07:15:30.013Z,31.28
2023-02-08T07:16:30.045Z,31.43
2023-02-08T07:17:29.994Z,31.56
2023-02-08T07:18:29.985Z,31.57
2023-02-08T07:19:30.038Z,31.69
2023-02-08T07:20:30.005Z,31.77
2023-02-08T07:21:29.955Z,31.98
2023-02-08T07:22:29.954Z,32.02
2023-02-08T07:23:29.978Z,32.07
2023-02-08T07:24:29.968Z,32.14
2023-02-08T07:26:29.915Z,32.30
2023-02-08T07:27:29.922Z,32.32
2023-02-08T07:28:29.920Z,32.43
2023-02-08T07:29:30.019Z,32.52
2023-02-08T07:30:29.952Z,32.69
2023-02-08T07:31:29.896Z,32.69
2023-02-08T07:32:29.871Z,32.73
2023-02-08T07:33:29.856Z,32.81
2023-02-08T07:34:29.848Z,32.90
2023-02-08T07:35:29.969Z,32.93
2023-02-08T07:36:29.829Z,32.93
2023-02-08T07:37:29.846Z,32.96
2023-02-08T07:38:29.809Z,33.03
2023-02-08T07:39:30.024Z,33.05
2023-02-08T07:40:29.791Z,33.12
2023-02-08T07:41:30.022Z,33.12
2023-02-08T07:42:29.772Z,33.15
2023-02-08T07:43:29.770Z,33.22
2023-02-08T07:44:29.764Z,33.30
2023-02-08T07:45:30.029Z,33.35
2023-02-08T07:46:29.740Z,33.32
2023-02-08T07:47:30.065Z,33.39
2023-02-08T07:48:29.756Z,33.45
2023-02-08T07:49:29.747Z,33.45
2023-02-08T07:51:29.754Z,33.06
2023-02-08T07:52:29.719Z,32.72
2023-02-08T07:53:29.705Z,29.64
2023-02-08T07:54:29.697Z,29.15
2023-02-08T07:55:30.049Z,27.97
2023-02-08T07:56:29.680Z,26.76
2023-02-08T07:57:29.678Z,26.22
2023-02-08T07:58:29.667Z,25.62
2023-02-08T07:59:29.662Z,26.11
2023-02-08T08:00:30.071Z,25.11
2023-02-08T08:01:29.099Z,25.04
2023-02-08T08:02:30.061Z,25.13
2023-02-08T08:03:29.613Z,24.57
2023-02-08T08:04:29.634Z,25.17
2023-02-08T08:05:29.620Z,24.39
2023-02-08T08:06:29.594Z,24.05
2023-02-08T08:07:30.091Z,24.38
2023-02-08T08:08:29.595Z,24.65
2023-02-08T08:09:29.560Z,25.71
2023-02-08T08:10:30.091Z,24.19
2023-02-08T08:11:29.806Z,24.71
2023-02-08T08:12:29.545Z,24.97
2023-02-08T08:13:29.533Z,24.67
2023-02-08T08:14:29.527Z,24.38
2023-02-08T08:15:29.511Z,24.28
2023-02-08T08:16:29.606Z,23.39
2023-02-08T08:17:30.182Z,24.38
2023-02-08T08:18:29.500Z,23.90
2023-02-08T08:19:29.487Z,23.50
2023-02-08T08:20:29.488Z,22.69
2023-02-08T08:21:29.591Z,23.20
2023-02-08T08:22:29.463Z,22.79
2023-02-08T08:23:29.608Z,23.05
2023-02-08T08:24:29.439Z,23.36
2023-02-08T08:25:29.403Z,23.23
2023-02-08T08:26:29.559Z,23.58
2023-02-08T08:27:29.411Z,23.45
2023-02-08T08:28:29.650Z,23.44
2023-02-08T08:29:29.394Z,23.68
2023-02-08T08:30:29.410Z,23.53
2023-02-08T08:31:29.692Z,24.25
2023-02-08T08:32:29.365Z,25.61
2023-02-08T08:34:29.356Z,26.16
2023-02-08T08:35:29.682Z,26.32
2023-02-08T08:37:29.330Z,26.41
2023-02-08T08:38:29.315Z,26.84
2023-02-08T08:39:29.337Z,27.30
2023-02-08T08:40:29.316Z,27.53
2023-02-08T08:41:29.578Z,27.76
2023-02-08T08:42:29.281Z,28.29
2023-02-08T08:43:29.273Z,28.33
2023-02-08T08:44:29.275Z,28.98
2023-02-08T08:45:28.269Z,29.16
2023-02-08T08:46:29.600Z,29.33
2023-02-08T08:47:29.234Z,29.44
2023-02-08T08:48:29.653Z,29.73
2023-02-08T08:49:29.197Z,29.69
2023-02-08T08:50:29.556Z,30.32
2023-02-08T08:51:29.550Z,30.36
2023-02-08T08:53:29.162Z,30.43
2023-02-08T08:54:29.151Z,30.54
2023-02-08T08:56:29.567Z,30.86
2023-02-08T08:57:29.123Z,31.02
2023-02-08T08:58:29.144Z,31.08
2023-02-08T08:59:29.113Z,31.14
2023-02-08T09:00:29.098Z,31.43
2023-02-08T09:01:29.594Z,31.34
2023-02-08T09:02:29.088Z,31.49
2023-02-08T09:03:29.209Z,31.62
2023-02-08T09:04:29.065Z,31.78
2023-02-08T09:05:29.067Z,31.81
2023-02-08T09:06:29.044Z,31.82
2023-02-08T09:07:29.039Z,31.91
2023-02-08T09:08:29.025Z,31.93
2023-02-08T09:09:29.019Z,31.99
2023-02-08T09:10:29.057Z,31.97
2023-02-08T09:11:29.071Z,31.98
2023-02-08T09:12:28.982Z,31.95
2023-02-08T09:13:28.977Z,32.00
2023-02-08T09:14:28.977Z,32.23
2023-02-08T09:15:28.974Z,32.32
2023-02-08T09:16:29.042Z,32.40
2023-02-08T09:17:29.056Z,32.40
2023-02-08T09:18:28.929Z,32.43
2023-02-08T09:19:28.933Z,32.55
2023-02-08T09:20:28.927Z,32.63
2023-02-08T09:21:28.903Z,32.80
2023-02-08T09:22:29.058Z,32.89
2023-02-08T09:23:28.886Z,32.91
2023-02-08T09:24:29.083Z,32.97
2023-02-08T09:25:28.866Z,32.94
2023-02-08T09:26:28.862Z,32.97
2023-02-08T09:27:28.877Z,33.08
2023-02-08T09:28:28.843Z,33.09
2023-02-08T09:29:29.058Z,33.09
2023-02-08T09:30:28.839Z,33.23
2023-02-08T09:31:28.947Z,33.28
2023-02-08T09:32:28.812Z,33.29
2023-02-08T09:33:28.813Z,33.41
2023-02-08T09:34:28.798Z,33.45
2023-02-08T09:35:28.807Z,33.33
2023-02-08T09:36:28.798Z,33.30
2023-02-08T09:37:28.773Z,33.30
2023-02-08T09:38:28.764Z,33.33
2023-02-08T09:39:29.060Z,33.30
2023-02-08T09:40:28.785Z,33.25
2023-02-08T09:41:28.761Z,33.17
2023-02-08T09:42:36.120Z,33.18
2023-02-08T09:43:28.720Z,33.27
2023-02-08T09:44:28.717Z,33.15
2023-02-08T09:45:28.701Z,33.18
2023-02-08T09:46:28.724Z,33.30
2023-02-08T09:47:29.113Z,33.40
2023-02-08T09:48:28.685Z,33.69
2023-02-08T09:50:28.658Z,33.87
2023-02-08T09:51:28.646Z,33.91
2023-02-08T09:52:29.085Z,33.80
2023-02-08T09:53:28.634Z,33.79
2023-02-08T09:54:28.624Z,33.83
2023-02-08T09:55:28.611Z,33.88
2023-02-08T09:57:29.120Z,33.99
2023-02-08T09:58:28.609Z,34.00
2023-02-08T09:59:28.581Z,33.96
2023-02-08T10:00:28.599Z,33.97
2023-02-08T10:02:28.596Z,34.07
2023-02-08T10:03:28.632Z,34.09
2023-02-08T10:04:28.555Z,34.12
2023-02-08T10:05:28.530Z,34.13
2023-02-08T10:06:28.549Z,34.12
2023-02-08T10:07:28.623Z,34.17
2023-02-08T10:08:34.925Z,34.20
2023-02-08T10:09:28.489Z,34.27
2023-02-08T10:10:28.477Z,34.34
2023-02-08T10:11:28.494Z,34.32
2023-02-08T10:12:28.485Z,34.23
2023-02-08T10:13:40.720Z,34.24
2023-02-08T10:14:28.472Z,34.25
2023-02-08T10:15:28.438Z,34.28
2023-02-08T10:16:28.478Z,34.28
2023-02-08T10:17:28.428Z,34.27
2023-02-08T10:18:28.470Z,34.28
2023-02-08T10:19:28.398Z,34.21
2023-02-08T10:20:28.425Z,34.22
2023-02-08T10:21:28.594Z,34.34
2023-02-08T10:22:28.371Z,34.41
2023-02-08T10:23:28.404Z,34.47
2023-02-08T10:24:28.646Z,34.46
2023-02-08T10:25:28.352Z,34.43
2023-02-08T10:26:28.377Z,34.44
2023-02-08T10:27:28.359Z,34.36
2023-02-08T10:28:28.464Z,34.40
2023-02-08T10:29:28.619Z,34.45
2023-02-08T10:30:28.409Z,34.33
2023-02-08T10:31:28.349Z,34.46
2023-02-08T10:32:28.296Z,34.46
2023-02-08T10:33:28.275Z,34.57
2023-02-08T10:35:28.258Z,34.49
2023-02-08T10:36:28.258Z,34.43
2023-02-08T10:37:28.247Z,34.40
2023-02-08T10:39:28.227Z,34.54
2023-02-08T10:40:28.216Z,34.72
2023-02-08T10:41:28.205Z,34.81
2023-02-08T10:44:28.234Z,34.96
2023-02-08T10:45:28.175Z,34.94
2023-02-08T10:46:28.230Z,34.88
2023-02-08T10:47:28.146Z,34.81
2023-02-08T10:48:28.157Z,34.75
2023-02-08T10:49:28.134Z,34.69
2023-02-08T10:50:30.207Z,34.71
2023-02-08T10:51:28.134Z,34.65
2023-02-08T10:52:28.116Z,34.70
2023-02-08T10:53:28.312Z,34.67
2023-02-08T10:54:28.098Z,34.64
2023-02-08T10:55:28.079Z,34.69
2023-02-08T10:56:28.108Z,34.66
2023-02-08T10:58:29.073Z,34.54
2023-02-08T10:59:28.143Z,34.58
2023-02-08T11:01:28.161Z,34.64
2023-02-08T11:02:28.156Z,34.65
2023-02-08T11:03:28.111Z,34.51
2023-02-08T11:04:28.149Z,34.46
2023-02-08T11:05:28.109Z,34.42
2023-02-08T11:06:28.096Z,34.41
2023-02-08T11:07:28.076Z,34.42
2023-02-08T11:08:28.334Z,34.55
2023-02-08T11:09:28.058Z,34.48
2023-02-08T11:10:28.044Z,34.45
2023-02-08T11:11:28.028Z,34.51
2023-02-08T11:12:28.020Z,34.58
2023-02-08T11:13:28.007Z,34.59
2023-02-08T11:14:37.892Z,34.51
2023-02-08T11:15:28.009Z,34.58
2023-02-08T11:16:28.038Z,34.63
2023-02-08T11:17:28.001Z,34.61
2023-02-08T11:18:28.131Z,34.76
2023-02-08T11:19:27.965Z,35.24
2023-02-08T11:20:27.955Z,35.76
2023-02-08T11:21:27.950Z,35.14
2023-02-08T11:22:27.932Z,34.94
2023-02-08T11:23:28.113Z,35.43
2023-02-08T11:24:27.923Z,34.89
2023-02-08T11:25:27.905Z,35.43
2023-02-08T11:26:27.908Z,35.37
2023-02-08T11:27:28.124Z,35.04
2023-02-08T11:28:27.917Z,34.87
2023-02-08T11:29:27.887Z,33.96
2023-02-08T11:30:27.884Z,34.43
2023-02-08T11:31:27.874Z,33.63
2023-02-08T11:32:28.125Z,33.71
2023-02-08T11:33:28.131Z,33.54
2023-02-08T11:34:27.872Z,32.89
2023-02-08T11:35:28.118Z,33.37
2023-02-08T11:36:27.820Z,32.55
2023-02-08T11:37:27.807Z,32.70
2023-02-08T11:38:27.795Z,32.68
2023-02-08T11:39:27.798Z,32.66
2023-02-08T11:40:28.135Z,32.15
2023-02-08T11:41:27.769Z,32.57
2023-02-08T11:42:27.770Z,32.41
2023-02-08T11:43:27.748Z,32.26
2023-02-08T11:44:28.126Z,32.06
2023-02-08T11:45:27.736Z,31.79
2023-02-08T11:46:28.152Z,31.75
2023-02-08T11:47:27.722Z,32.06
2023-02-08T11:48:27.710Z,32.07
2023-02-08T11:49:28.130Z,32.17
2023-02-08T11:50:27.731Z,32.15
2023-02-08T11:51:27.694Z,32.14
2023-02-08T11:52:27.669Z,32.11
2023-02-08T11:53:27.675Z,32.01
2023-02-08T11:54:27.664Z,32.16
2023-02-08T11:55:27.651Z,32.22
2023-02-08T11:56:27.642Z,32.32
2023-02-08T11:57:27.636Z,32.43
2023-02-08T11:58:27.627Z,32.50
2023-02-08T11:59:27.616Z,32.57
2023-02-08T12:00:27.611Z,32.59
2023-02-08T12:01:27.595Z,32.64
2023-02-08T12:02:27.656Z,32.69
2023-02-08T12:03:27.627Z,32.73
2023-02-08T12:04:27.632Z,32.83
2023-02-08T12:05:27.562Z,32.84
2023-02-08T12:06:27.608Z,32.94
2023-02-08T12:07:27.545Z,33.47
2023-02-08T12:08:27.549Z,33.73
2023-02-08T12:09:27.646Z,33.23
2023-02-08T12:10:27.520Z,33.19
2023-02-08T12:11:27.636Z,33.10
2023-02-08T12:12:27.500Z,32.92
2023-02-08T12:13:27.526Z,32.79
2023-02-08T12:14:27.491Z,32.76
2023-02-08T12:15:27.517Z,32.68
2023-02-08T12:16:27.734Z,32.53
2023-02-08T12:17:27.458Z,32.47
2023-02-08T12:18:27.640Z,32.35
2023-02-08T12:19:27.455Z,32.23
2023-02-08T12:20:27.440Z,32.25
2023-02-08T12:21:27.646Z,32.12
2023-02-08T12:22:27.449Z,32.05
2023-02-08T12:23:27.405Z,31.98
2023-02-08T12:24:27.395Z,31.97
2023-02-08T12:25:27.390Z,31.95
2023-02-08T12:26:27.418Z,31.96
2023-02-08T12:27:27.595Z,32.08
2023-02-08T12:28:27.362Z,32.11
2023-02-08T12:29:33.179Z,32.10
2023-02-08T12:30:27.340Z,32.09
2023-02-08T12:31:27.509Z,31.99
2023-02-08T12:32:27.325Z,31.85
2023-02-08T12:33:27.313Z,31.80
2023-02-08T12:34:27.646Z,31.79
2023-02-08T12:35:40.210Z,31.77
2023-02-08T12:36:27.302Z,31.75
2023-02-08T12:37:27.280Z,31.66
2023-02-08T12:38:27.291Z,31.66
2023-02-08T12:39:27.648Z,31.64
2023-02-08T12:40:27.249Z,31.68
2023-02-08T12:41:27.246Z,31.69
2023-02-08T12:42:27.246Z,31.64
2023-02-08T12:43:27.235Z,31.63
2023-02-08T12:44:27.218Z,31.54
2023-02-08T12:45:27.654Z,31.55
2023-02-08T12:46:27.284Z,31.55
2023-02-08T12:47:27.198Z,31.57
2023-02-08T12:48:27.182Z,31.57
2023-02-08T12:49:27.181Z,31.55
2023-02-08T12:50:27.646Z,31.51
2023-02-08T12:51:27.165Z,31.51
2023-02-08T12:52:27.151Z,31.53
2023-02-08T12:53:27.141Z,31.56
2023-02-08T12:54:27.152Z,31.54
2023-02-08T12:55:27.142Z,31.51
2023-02-08T12:56:27.107Z,31.32
2023-02-08T12:57:27.151Z,31.40
2023-02-08T12:58:27.094Z,31.31
2023-02-08T12:59:27.083Z,31.42
2023-02-08T13:00:27.147Z,31.40
2023-02-08T13:01:27.095Z,31.39
2023-02-08T13:02:27.105Z,31.32
2023-02-08T13:03:27.056Z,31.07
2023-02-08T13:04:27.041Z,31.07
2023-02-08T13:05:27.030Z,31.09
2023-02-08T13:06:27.027Z,31.19
2023-02-08T13:07:27.016Z,31.13
2023-02-08T13:08:27.013Z,31.10
2023-02-08T13:09:26.999Z,31.09
2023-02-08T13:10:27.029Z,31.09
2023-02-08T13:11:26.979Z,31.02
2023-02-08T13:12:26.972Z,31.02
2023-02-08T13:13:26.975Z,31.11
2023-02-08T13:14:26.959Z,31.12
2023-02-08T13:15:31.048Z,31.18
2023-02-08T13:16:26.965Z,31.40
2023-02-08T13:17:26.929Z,33.10
2023-02-08T13:18:27.156Z,32.13
2023-02-08T13:19:26.908Z,32.04
2023-02-08T13:20:26.905Z,32.35
2023-02-08T13:21:26.892Z,32.84
2023-02-08T13:22:26.903Z,33.21
2023-02-08T13:23:26.882Z,33.98
2023-02-08T13:24:26.865Z,34.43
2023-02-08T13:25:26.858Z,34.59
2023-02-08T13:26:26.870Z,35.04
2023-02-08T13:27:26.844Z,35.15
2023-02-08T13:28:26.891Z,35.21
2023-02-08T13:29:28.438Z,35.12
2023-02-08T13:30:27.183Z,35.08
2023-02-08T13:31:26.966Z,35.17
2023-02-08T13:32:26.799Z,35.10
2023-02-08T13:33:26.788Z,35.17
2023-02-08T13:34:26.780Z,35.05
2023-02-08T13:35:26.772Z,34.67
2023-02-08T13:36:26.787Z,34.81
2023-02-08T13:37:28.993Z,34.73
2023-02-08T13:38:26.741Z,34.81
2023-02-08T13:39:26.774Z,34.78
2023-02-08T13:40:27.256Z,34.70
2023-02-08T13:41:26.725Z,34.60
2023-02-08T13:42:26.735Z,34.44
2023-02-08T13:43:35.201Z,34.37
2023-02-08T13:44:26.695Z,34.35
2023-02-08T13:45:26.691Z,34.36
2023-02-08T13:46:26.694Z,34.34
2023-02-08T13:47:26.673Z,34.21
2023-02-08T13:48:26.669Z,34.07
2023-02-08T13:49:26.654Z,33.97
2023-02-08T13:50:29.074Z,33.98
2023-02-08T13:51:26.672Z,33.98
2023-02-08T13:52:30.035Z,33.94
2023-02-08T13:53:26.622Z,33.83
2023-02-08T13:54:26.616Z,33.70
2023-02-08T13:55:26.607Z,33.64
2023-02-08T13:56:26.676Z,33.58
2023-02-08T13:57:26.585Z,33.51
2023-02-08T13:58:26.638Z,33.47
2023-02-08T13:59:26.584Z,33.48